Time;durP1;ratioP1;P1;durP2;ratioP2;P2;SDS_P1;SDS_P2;PMS_P1;PMS_P2;Temp;Humidity;BMP_temperature;BMP_pressure;BME280_temperature;BME280_humidity;BME280_pressure;Samples;Min_cycle;Max_cycle;Signal;HPM_P1;HPM_P2
2024/01/01 00:01:00;;;;;;;18.10;11.90;;;12.00;99.90;;;;;;5095592;28;20028;-44
2024/01/01 00:03:26;;;;;;;17.30;12.05;;;11.90;99.90;;;;;;5093303;28;20100;-45
2024/01/01 00:05:52;;;;;;;17.48;11.43;;;12.00;99.90;;;;;;5094503;28;20032;-45
2024/01/01 00:08:19;;;;;;;17.50;11.90;;;11.90;99.90;;;;;;5094976;28;20029;-45
2024/01/01 00:10:45;;;;;;;18.05;12.05;;;12.00;99.90;;;;;;5094580;28;20518;-45
2024/01/01 00:13:10;;;;;;;18.08;12.23;;;12.00;99.90;;;;;;5094643;28;20474;-45
2024/01/01 00:15:37;;;;;;;16.92;11.75;;;12.00;99.90;;;;;;5093765;28;20031;-45
2024/01/01 00:18:03;;;;;;;16.85;11.18;;;12.00;99.90;;;;;;5093918;28;20039;-44
2024/01/01 00:20:28;;;;;;;14.60;11.40;;;11.90;99.90;;;;;;5093727;28;20028;-45
2024/01/01 00:22:54;;;;;;;19.05;12.07;;;11.90;99.90;;;;;;5094416;28;20032;-45
2024/01/01 00:25:20;;;;;;;15.75;11.30;;;11.90;99.90;;;;;;5094572;28;20560;-45
2024/01/01 00:27:45;;;;;;;14.98;10.77;;;11.90;99.90;;;;;;5093558;28;20082;-42
2024/01/01 00:30:11;;;;;;;16.58;11.68;;;11.90;99.90;;;;;;5094692;28;20535;-45
2024/01/01 00:32:37;;;;;;;16.20;11.45;;;11.90;99.90;;;;;;5093492;28;20063;-45
2024/01/01 00:35:03;;;;;;;16.13;11.52;;;11.90;99.90;;;;;;5093584;28;20055;-45
2024/01/01 00:37:28;;;;;;;16.98;11.65;;;11.90;99.90;;;;;;5094343;28;20043;-43
2024/01/01 00:39:55;;;;;;;14.50;11.18;;;11.90;99.90;;;;;;5093294;28;20020;-45
2024/01/01 00:42:20;;;;;;;16.05;11.07;;;11.90;99.90;;;;;;5093856;28;20027;-45
2024/01/01 00:44:46;;;;;;;16.45;11.13;;;11.90;99.90;;;;;;5094360;28;20409;-45
2024/01/01 00:47:12;;;;;;;14.63;10.90;;;11.90;99.90;;;;;;5093362;28;20058;-45
2024/01/01 00:49:37;;;;;;;16.25;10.98;;;11.90;99.90;;;;;;5093568;28;20109;-45
2024/01/01 00:52:03;;;;;;;15.30;10.95;;;11.90;99.90;;;;;;5094004;28;20028;-45
2024/01/01 00:54:29;;;;;;;15.02;10.80;;;11.90;99.90;;;;;;5093684;28;20034;-45
2024/01/01 00:56:55;;;;;;;14.00;10.82;;;11.90;99.90;;;;;;5093895;28;20024;-45
2024/01/01 00:59:22;;;;;;;15.18;11.00;;;11.90;99.90;;;;;;5093699;28;20016;-45
2024/01/01 01:01:47;;;;;;;14.60;10.68;;;11.90;99.90;;;;;;5093430;28;20474;-45
2024/01/01 01:04:13;;;;;;;15.50;11.02;;;11.90;99.90;;;;;;5093499;28;20067;-45
2024/01/01 01:06:39;;;;;;;13.77;10.60;;;11.90;99.90;;;;;;5092710;28;20386;-45
2024/01/01 01:09:05;;;;;;;14.23;10.95;;;11.90;99.90;;;;;;5093377;28;20032;-45
2024/01/01 01:11:32;;;;;;;15.93;10.80;;;11.90;99.90;;;;;;5093878;28;20087;-45
2024/01/01 01:13:57;;;;;;;15.75;11.07;;;11.90;99.90;;;;;;5092379;28;20020;-45
2024/01/01 01:16:23;;;;;;;15.18;10.88;;;11.90;99.90;;;;;;5092681;28;20093;-45
2024/01/01 01:18:49;;;;;;;11.63;9.63;;;11.90;99.90;;;;;;5093428;28;20036;-45
2024/01/01 01:21:15;;;;;;;15.18;10.68;;;11.90;99.90;;;;;;5091725;28;20050;-44
2024/01/01 01:23:41;;;;;;;13.48;9.57;;;11.90;99.90;;;;;;5092920;28;20035;-45
2024/01/01 01:26:07;;;;;;;15.73;10.05;;;11.90;99.90;;;;;;5092012;28;20028;-45
2024/01/01 01:28:33;;;;;;;13.80;9.77;;;11.90;99.90;;;;;;5091823;28;20023;-44
2024/01/01 01:31:00;;;;;;;14.00;10.35;;;11.90;99.90;;;;;;5093171;28;20024;-44
2024/01/01 01:33:26;;;;;;;12.27;8.98;;;11.90;99.90;;;;;;5092575;28;20032;-45
2024/01/01 01:35:52;;;;;;;13.27;9.57;;;11.90;99.90;;;;;;5092369;28;20381;-45
2024/01/01 01:38:17;;;;;;;13.43;9.40;;;11.90;99.90;;;;;;5093190;28;20034;-45
2024/01/01 01:40:43;;;;;;;11.95;9.25;;;11.90;99.90;;;;;;5092808;28;20032;-45
2024/01/01 01:43:22;;;;;;;13.15;9.00;;;11.90;99.90;;;;;;5091625;28;20067;-45
2024/01/01 01:45:49;;;;;;;11.60;8.75;;;11.90;99.90;;;;;;5092756;28;20024;-45
2024/01/01 01:48:16;;;;;;;12.80;8.07;;;11.90;99.90;;;;;;5092864;28;20519;-45
2024/01/01 01:50:44;;;;;;;11.57;8.52;;;11.90;99.90;;;;;;5093522;28;20028;-45
2024/01/01 01:53:12;;;;;;;11.40;8.10;;;11.80;99.90;;;;;;5092707;28;20024;-45
2024/01/01 01:55:41;;;;;;;11.95;8.38;;;11.80;99.90;;;;;;5092677;28;20073;-45
2024/01/01 01:58:07;;;;;;;12.05;8.70;;;11.90;99.90;;;;;;5091166;28;20024;-45
2024/01/01 02:00:32;;;;;;;12.00;8.27;;;11.90;99.90;;;;;;5092598;28;20036;-44
2024/01/01 02:02:58;;;;;;;11.15;8.07;;;11.80;99.90;;;;;;5092498;28;20077;-45
2024/01/01 02:05:24;;;;;;;10.10;7.72;;;11.80;99.90;;;;;;5092097;28;20048;-45
2024/01/01 02:07:50;;;;;;;10.68;7.80;;;11.80;99.90;;;;;;5092056;28;20063;-44
2024/01/01 02:10:15;;;;;;;10.57;7.80;;;11.80;99.90;;;;;;5091346;28;20020;-45
2024/01/01 02:12:44;;;;;;;11.45;8.05;;;11.80;99.90;;;;;;5091757;28;20127;-44
2024/01/01 02:15:09;;;;;;;10.35;7.53;;;11.80;99.90;;;;;;5092467;28;20039;-44
2024/01/01 02:17:35;;;;;;;10.05;6.93;;;11.80;99.90;;;;;;5091695;28;20063;-45
2024/01/01 02:20:02;;;;;;;9.00;6.50;;;11.80;99.90;;;;;;5092750;28;20028;-45
2024/01/01 02:22:38;;;;;;;8.20;6.63;;;11.80;99.90;;;;;;5092146;28;20016;-43
2024/01/01 02:25:05;;;;;;;8.25;6.22;;;11.80;99.90;;;;;;5091630;28;20036;-44
2024/01/01 02:27:33;;;;;;;8.07;6.20;;;11.90;99.90;;;;;;5092071;28;20074;-45
2024/01/01 02:29:59;;;;;;;9.13;6.13;;;11.90;99.90;;;;;;5089753;28;20031;-45
2024/01/01 02:32:24;;;;;;;8.05;6.32;;;11.90;99.90;;;;;;5091709;28;20032;-45
2024/01/01 02:34:50;;;;;;;7.72;6.32;;;11.90;99.90;;;;;;5091740;28;20035;-44
2024/01/01 02:37:16;;;;;;;8.02;6.30;;;12.00;99.90;;;;;;5091153;28;20028;-45
2024/01/01 02:39:41;;;;;;;6.93;6.05;;;12.00;99.90;;;;;;5090943;28;20032;-45
2024/01/01 02:42:07;;;;;;;8.45;6.47;;;12.00;99.90;;;;;;5091224;28;20060;-45
2024/01/01 02:44:33;;;;;;;7.93;6.13;;;12.00;99.90;;;;;;5091459;28;20688;-45
2024/01/01 02:46:58;;;;;;;8.93;5.88;;;12.10;99.90;;;;;;5091517;28;20069;-45
2024/01/01 02:49:24;;;;;;;8.10;5.82;;;12.10;99.90;;;;;;5091244;28;20020;-45
2024/01/01 02:51:49;;;;;;;7.88;5.43;;;12.10;99.90;;;;;;5092016;28;20371;-44
2024/01/01 02:54:15;;;;;;;7.63;6.13;;;12.10;99.90;;;;;;5091909;28;20028;-45
2024/01/01 02:56:41;;;;;;;7.43;5.53;;;12.20;99.90;;;;;;5092341;28;20032;-45
2024/01/01 02:59:07;;;;;;;8.98;5.38;;;12.10;99.90;;;;;;5091258;28;20028;-44
2024/01/01 03:01:33;;;;;;;6.72;4.70;;;12.20;99.90;;;;;;5090077;28;20778;-45
2024/01/01 03:03:58;;;;;;;7.47;5.35;;;12.20;99.90;;;;;;5091107;28;20031;-45
2024/01/01 03:06:24;;;;;;;7.00;5.13;;;12.20;99.90;;;;;;5091069;28;20020;-45
2024/01/01 03:08:50;;;;;;;5.75;4.78;;;12.20;99.80;;;;;;5091315;28;20035;-45
2024/01/01 03:11:15;;;;;;;7.10;5.07;;;12.20;99.80;;;;;;5094534;28;20381;-45
2024/01/01 03:13:41;;;;;;;5.60;4.43;;;12.20;99.80;;;;;;5095326;28;20027;-45
2024/01/01 03:16:07;;;;;;;6.88;4.85;;;12.20;99.80;;;;;;5095089;28;20435;-45
2024/01/01 03:18:32;;;;;;;6.55;4.65;;;12.20;99.80;;;;;;5095739;28;20028;-45
2024/01/01 03:20:58;;;;;;;6.45;4.82;;;12.20;99.80;;;;;;5096125;28;20028;-45
2024/01/01 03:23:24;;;;;;;5.70;4.20;;;12.20;99.80;;;;;;5095580;28;20040;-45
2024/01/01 03:25:49;;;;;;;5.90;4.30;;;12.20;99.80;;;;;;5095801;28;20402;-45
2024/01/01 03:28:16;;;;;;;5.65;4.28;;;12.20;99.80;;;;;;5095265;28;20469;-45
2024/01/01 03:30:41;;;;;;;6.82;4.75;;;12.20;99.80;;;;;;5095477;28;20025;-44
2024/01/01 03:33:07;;;;;;;6.75;4.22;;;12.20;99.80;;;;;;5094102;28;20025;-45
2024/01/01 03:35:33;;;;;;;5.68;4.32;;;12.20;99.80;;;;;;5094899;28;20077;-45
2024/01/01 03:37:59;;;;;;;5.38;4.18;;;12.20;99.80;;;;;;5094567;28;20081;-45
2024/01/01 03:40:24;;;;;;;8.77;4.50;;;12.20;99.80;;;;;;5094305;28;20046;-45
2024/01/01 03:42:50;;;;;;;5.95;4.30;;;12.20;99.80;;;;;;5095139;28;20023;-45
2024/01/01 03:45:16;;;;;;;4.30;3.45;;;12.10;99.80;;;;;;5094718;28;20074;-45
2024/01/01 03:47:42;;;;;;;6.00;3.85;;;12.10;99.70;;;;;;5094148;28;20026;-45
2024/01/01 03:50:08;;;;;;;4.68;3.70;;;12.10;99.80;;;;;;5094571;28;20046;-44
2024/01/01 03:52:34;;;;;;;5.90;4.20;;;12.10;99.70;;;;;;5093683;28;20031;-45
2024/01/01 03:54:59;;;;;;;5.07;3.95;;;12.10;99.70;;;;;;5093897;28;20032;-45
2024/01/01 03:57:25;;;;;;;5.32;3.60;;;12.10;99.70;;;;;;5093616;28;20477;-45
2024/01/01 03:59:52;;;;;;;4.80;3.40;;;12.10;99.80;;;;;;5093740;28;20051;-45
2024/01/01 04:02:18;;;;;;;5.85;3.60;;;12.10;99.80;;;;;;5094518;28;20538;-45
2024/01/01 04:04:44;;;;;;;4.47;3.38;;;12.10;99.80;;;;;;5094908;28;20126;-44
2024/01/01 04:07:10;;;;;;;4.72;3.38;;;12.10;99.80;;;;;;5092000;28;20031;-44
2024/01/01 04:09:36;;;;;;;4.35;3.50;;;12.10;99.80;;;;;;5093280;28;20039;-45
2024/01/01 04:12:02;;;;;;;4.70;3.80;;;12.10;99.80;;;;;;5093742;28;20025;-45
2024/01/01 04:14:28;;;;;;;4.10;3.15;;;12.10;99.80;;;;;;5093397;28;20027;-45
2024/01/01 04:16:53;;;;;;;4.75;3.50;;;12.00;99.80;;;;;;5093209;28;20027;-45
2024/01/01 04:19:21;;;;;;;4.25;3.30;;;12.10;99.80;;;;;;5093203;28;20051;-45
2024/01/01 04:21:47;;;;;;;4.15;3.20;;;12.00;99.80;;;;;;5092080;28;20103;-44
2024/01/01 04:24:13;;;;;;;4.15;3.30;;;12.10;99.80;;;;;;5093953;28;20027;-45
2024/01/01 04:26:39;;;;;;;4.63;3.40;;;12.00;99.80;;;;;;5094373;28;20497;-45
2024/01/01 04:29:05;;;;;;;4.97;3.40;;;12.00;99.80;;;;;;5094240;28;20448;-45
2024/01/01 04:31:30;;;;;;;4.32;3.38;;;12.00;99.80;;;;;;5093184;28;20020;-45
2024/01/01 04:33:56;;;;;;;4.43;3.10;;;12.00;99.90;;;;;;5094130;28;20393;-45
2024/01/01 04:36:22;;;;;;;4.63;3.00;;;12.00;99.90;;;;;;5094014;28;20028;-45
2024/01/01 04:38:48;;;;;;;3.72;2.90;;;12.00;99.90;;;;;;5093103;28;20053;-45
2024/01/01 04:41:14;;;;;;;4.07;2.90;;;12.00;99.90;;;;;;5094491;28;20035;-45
2024/01/01 04:43:40;;;;;;;3.03;2.45;;;12.00;99.90;;;;;;5093271;28;20062;-45
2024/01/01 04:46:07;;;;;;;3.85;3.00;;;12.00;99.90;;;;;;5093169;28;20107;-44
2024/01/01 04:48:34;;;;;;;3.55;2.80;;;12.00;99.90;;;;;;5092612;28;20081;-45
2024/01/01 04:51:00;;;;;;;4.05;2.88;;;12.00;99.90;;;;;;5093255;28;20406;-45
2024/01/01 04:53:26;;;;;;;3.58;2.85;;;11.90;99.90;;;;;;5093004;28;20017;-45
2024/01/01 04:55:51;;;;;;;4.65;2.95;;;11.90;99.90;;;;;;5092952;28;20019;-45
2024/01/01 04:58:17;;;;;;;4.18;2.83;;;12.00;99.90;;;;;;5093757;28;20513;-45
2024/01/01 05:00:43;;;;;;;3.70;2.47;;;11.90;99.90;;;;;;5093522;28;20478;-45
2024/01/01 05:03:08;;;;;;;3.17;2.40;;;11.90;99.90;;;;;;5092859;28;20032;-45
2024/01/01 05:05:34;;;;;;;4.68;2.63;;;11.90;99.90;;;;;;5092743;28;20024;-45
2024/01/01 05:08:00;;;;;;;3.45;2.25;;;11.90;99.90;;;;;;5092432;28;20048;-45
2024/01/01 05:10:26;;;;;;;4.07;2.63;;;11.90;99.90;;;;;;5094115;28;20506;-45
2024/01/01 05:12:52;;;;;;;2.83;2.30;;;11.90;99.90;;;;;;5093161;28;20063;-45
2024/01/01 05:15:18;;;;;;;3.72;2.08;;;11.90;99.90;;;;;;5093067;28;20020;-45
2024/01/01 05:17:44;;;;;;;4.60;2.20;;;11.90;99.90;;;;;;5092611;28;20316;-45
2024/01/01 05:20:09;;;;;;;3.10;2.15;;;11.90;99.90;;;;;;5093245;28;20020;-45
2024/01/01 05:22:35;;;;;;;3.90;2.33;;;11.90;99.90;;;;;;5092193;28;20099;-45
2024/01/01 05:25:01;;;;;;;4.72;2.50;;;11.90;99.90;;;;;;5092305;28;20089;-45
2024/01/01 05:27:26;;;;;;;2.83;2.35;;;11.90;99.90;;;;;;5092437;28;20028;-45
2024/01/01 05:29:52;;;;;;;3.22;2.30;;;11.80;99.90;;;;;;5092312;28;20502;-45
2024/01/01 05:32:18;;;;;;;3.53;2.20;;;11.90;99.90;;;;;;5092169;28;20028;-44
2024/01/01 05:34:44;;;;;;;3.38;2.20;;;11.90;99.90;;;;;;5092476;28;20043;-45
2024/01/01 05:37:09;;;;;;;3.22;2.00;;;11.90;99.90;;;;;;5093341;28;20099;-45
2024/01/01 05:39:35;;;;;;;3.38;2.00;;;11.90;99.90;;;;;;5092344;28;20051;-45
2024/01/01 05:42:01;;;;;;;4.53;2.33;;;11.80;99.90;;;;;;5092006;28;20020;-45
2024/01/01 05:44:27;;;;;;;2.92;1.88;;;11.80;99.90;;;;;;5092967;28;20060;-45
2024/01/01 05:46:53;;;;;;;4.38;1.98;;;11.80;99.90;;;;;;5092201;28;20535;-45
2024/01/01 05:49:18;;;;;;;2.30;1.80;;;11.80;99.90;;;;;;5091714;28;20016;-45
2024/01/01 05:51:44;;;;;;;2.78;1.92;;;11.80;99.90;;;;;;5091633;28;20024;-45
2024/01/01 05:54:10;;;;;;;2.63;1.80;;;11.80;99.90;;;;;;5092940;28;20627;-45
2024/01/01 05:56:36;;;;;;;3.17;2.10;;;11.80;99.90;;;;;;5092572;28;20032;-45
2024/01/01 05:59:02;;;;;;;2.95;2.05;;;11.80;99.90;;;;;;5091978;28;20020;-45
2024/01/01 06:01:28;;;;;;;2.05;1.60;;;11.80;99.90;;;;;;5092542;28;20030;-45
2024/01/01 06:03:53;;;;;;;3.10;1.75;;;11.80;99.90;;;;;;5091969;28;20053;-45
2024/01/01 06:06:19;;;;;;;3.00;1.80;;;11.80;99.90;;;;;;5092076;28;20035;-45
2024/01/01 06:08:44;;;;;;;2.95;1.90;;;11.80;99.90;;;;;;5092629;28;20115;-44
2024/01/01 06:11:10;;;;;;;3.03;1.60;;;11.80;99.90;;;;;;5092299;28;20023;-45
2024/01/01 06:13:36;;;;;;;4.25;1.70;;;11.80;99.90;;;;;;5092570;28;20078;-45
2024/01/01 06:16:03;;;;;;;2.30;1.45;;;11.70;99.90;;;;;;5091523;28;20489;-45
2024/01/01 06:18:28;;;;;;;2.00;1.50;;;11.80;99.90;;;;;;5091446;28;20042;-45
2024/01/01 06:20:54;;;;;;;2.38;1.55;;;11.70;99.90;;;;;;5089958;28;20549;-45
2024/01/01 06:23:20;;;;;;;3.42;1.70;;;11.80;99.90;;;;;;5091165;28;20078;-45
2024/01/01 06:25:45;;;;;;;3.30;1.52;;;11.80;99.90;;;;;;5090931;28;20039;-45
2024/01/01 06:28:11;;;;;;;3.40;1.88;;;11.80;99.90;;;;;;5091881;28;20145;-45
2024/01/01 06:30:37;;;;;;;2.75;1.40;;;11.70;99.90;;;;;;5091375;28;20052;-45
2024/01/01 06:33:04;;;;;;;2.75;1.70;;;11.80;99.90;;;;;;5091329;28;20042;-45
2024/01/01 06:35:30;;;;;;;2.72;1.40;;;11.70;99.90;;;;;;5092102;28;20024;-45
2024/01/01 06:37:58;;;;;;;3.40;1.70;;;11.70;99.90;;;;;;5091883;28;20020;-45
2024/01/01 06:40:25;;;;;;;2.75;1.58;;;11.70;99.90;;;;;;5093126;28;20428;-44
2024/01/01 06:42:50;;;;;;;2.13;1.48;;;11.80;99.90;;;;;;5091579;28;20028;-45
2024/01/01 06:45:17;;;;;;;2.15;1.48;;;11.80;99.90;;;;;;5094395;28;20038;-44
2024/01/01 06:47:43;;;;;;;4.07;1.80;;;11.70;99.90;;;;;;5094670;28;20440;-45
2024/01/01 06:50:09;;;;;;;2.33;1.40;;;11.70;99.90;;;;;;5096799;28;20032;-45
2024/01/01 06:52:34;;;;;;;1.85;1.60;;;11.70;99.90;;;;;;5094946;28;20058;-44
2024/01/01 06:55:00;;;;;;;2.88;1.63;;;11.70;99.90;;;;;;5085973;28;20032;-45
2024/01/01 06:57:25;;;;;;;2.83;1.70;;;11.70;99.90;;;;;;5094769;28;20036;-45
2024/01/01 06:59:51;;;;;;;1.80;1.15;;;11.70;99.90;;;;;;5095956;28;20367;-45
2024/01/01 07:02:17;;;;;;;2.33;1.23;;;11.70;99.90;;;;;;5095745;28;20389;-45
2024/01/01 07:04:43;;;;;;;2.47;1.30;;;11.70;99.90;;;;;;5095246;28;20032;-45
2024/01/01 07:07:09;;;;;;;2.15;1.40;;;11.70;99.90;;;;;;5096134;28;20119;-45
2024/01/01 07:09:35;;;;;;;2.75;1.40;;;11.70;99.90;;;;;;5094589;28;20119;-44
2024/01/01 07:12:20;;;;;;;1.98;1.40;;;11.70;99.90;;;;;;5094989;28;20095;-45
2024/01/01 07:14:47;;;;;;;2.05;1.35;;;11.70;99.90;;;;;;5096035;28;20051;-45
2024/01/01 07:17:13;;;;;;;2.45;1.20;;;11.70;99.90;;;;;;5094710;28;20024;-45
2024/01/01 07:19:38;;;;;;;1.80;1.10;;;11.70;99.90;;;;;;5095333;28;20031;-45
2024/01/01 07:22:04;;;;;;;2.20;1.30;;;11.70;99.90;;;;;;5094692;28;20432;-45
2024/01/01 07:24:30;;;;;;;3.60;1.27;;;11.70;99.90;;;;;;5095366;28;20024;-45
2024/01/01 07:26:57;;;;;;;2.15;1.20;;;11.60;99.90;;;;;;5096065;28;20386;-45
2024/01/01 07:29:23;;;;;;;2.03;1.25;;;11.70;99.90;;;;;;5095333;28;20099;-45
2024/01/01 07:31:48;;;;;;;1.88;1.20;;;11.60;99.90;;;;;;5095584;28;20055;-44
2024/01/01 07:34:18;;;;;;;2.08;1.40;;;11.70;99.90;;;;;;5094963;28;20028;-45
2024/01/01 07:36:44;;;;;;;2.35;1.27;;;11.70;99.90;;;;;;5095010;28;20502;-45
2024/01/01 07:39:09;;;;;;;1.75;1.20;;;11.70;99.90;;;;;;5093963;28;20103;-44
2024/01/01 07:41:35;;;;;;;3.33;1.65;;;11.70;99.90;;;;;;5094198;28;20397;-45
2024/01/01 07:44:00;;;;;;;3.35;1.30;;;11.70;99.90;;;;;;5094030;28;20382;-45
2024/01/01 07:46:26;;;;;;;2.70;1.30;;;11.70;99.90;;;;;;5093747;28;20036;-45
2024/01/01 07:48:52;;;;;;;1.95;1.00;;;11.70;99.90;;;;;;5094471;28;20035;-45
2024/01/01 07:51:17;;;;;;;1.83;1.10;;;11.80;99.90;;;;;;5093822;28;20117;-45
2024/01/01 07:53:43;;;;;;;3.35;1.42;;;11.80;99.90;;;;;;5093710;28;20020;-45
2024/01/01 07:56:09;;;;;;;2.10;1.00;;;11.80;99.90;;;;;;5093826;28;20023;-45
2024/01/01 07:58:35;;;;;;;2.13;1.13;;;11.90;99.90;;;;;;5094931;28;20074;-45
2024/01/01 08:01:00;;;;;;;1.63;0.85;;;11.90;99.90;;;;;;5094838;28;20398;-44
2024/01/01 08:03:26;;;;;;;1.92;1.00;;;12.00;99.90;;;;;;5094697;28;20024;-45
2024/01/01 08:05:52;;;;;;;1.77;1.13;;;12.00;99.90;;;;;;5094362;28;20081;-45
2024/01/01 08:08:17;;;;;;;2.17;1.05;;;12.00;99.90;;;;;;5093169;28;20032;-45
2024/01/01 08:10:43;;;;;;;1.85;0.95;;;12.10;99.90;;;;;;5093932;28;20024;-45
2024/01/01 08:13:09;;;;;;;1.75;1.00;;;12.10;99.90;;;;;;5093338;28;20020;-45
2024/01/01 08:15:35;;;;;;;1.48;1.10;;;12.20;99.80;;;;;;5093726;28;20028;-45
2024/01/01 08:18:02;;;;;;;2.15;1.05;;;12.20;99.80;;;;;;5094355;28;20028;-45
2024/01/01 08:20:29;;;;;;;2.42;0.98;;;12.30;99.90;;;;;;5094060;28;20020;-45
2024/01/01 08:22:55;;;;;;;1.52;0.93;;;12.40;99.70;;;;;;5094086;28;20487;-45
2024/01/01 08:25:21;;;;;;;1.80;1.10;;;12.40;99.60;;;;;;5094407;28;20516;-44
2024/01/01 08:27:47;;;;;;;1.98;1.00;;;12.50;99.50;;;;;;5093655;28;20047;-46
2024/01/01 08:30:13;;;;;;;2.17;0.93;;;12.60;99.50;;;;;;5093339;28;20107;-45
2024/01/01 08:32:39;;;;;;;1.70;0.90;;;12.70;99.30;;;;;;5094096;28;20263;-45
2024/01/01 08:35:04;;;;;;;2.20;0.90;;;12.80;99.30;;;;;;5094573;28;20028;-44
2024/01/01 08:37:31;;;;;;;0.95;0.70;;;12.90;99.20;;;;;;5094344;28;20035;-44
2024/01/01 08:39:56;;;;;;;1.98;1.00;;;12.90;99.00;;;;;;5093199;28;20024;-45
2024/01/01 08:42:22;;;;;;;1.48;0.77;;;13.00;99.00;;;;;;5092870;28;20076;-45
2024/01/01 08:44:48;;;;;;;2.45;1.10;;;13.00;98.90;;;;;;5094868;28;20032;-45
2024/01/01 08:47:15;;;;;;;2.85;0.95;;;13.10;98.80;;;;;;5093736;28;20031;-45
2024/01/01 08:49:42;;;;;;;1.48;0.90;;;13.20;98.80;;;;;;5092664;28;20016;-45
2024/01/01 08:52:07;;;;;;;1.65;1.02;;;13.20;98.70;;;;;;5093995;28;20024;-45
2024/01/01 08:54:33;;;;;;;2.38;1.02;;;13.30;98.60;;;;;;5093742;28;20031;-45
2024/01/01 08:57:01;;;;;;;1.70;0.80;;;13.30;98.50;;;;;;5093012;28;20623;-45
2024/01/01 08:59:26;;;;;;;1.52;0.80;;;13.40;98.40;;;;;;5093337;28;20020;-45
2024/01/01 09:01:52;;;;;;;2.30;1.10;;;13.50;98.30;;;;;;5092430;28;20012;-45
2024/01/01 09:04:17;;;;;;;1.85;0.75;;;13.60;98.20;;;;;;5092546;28;20073;-45
2024/01/01 09:06:44;;;;;;;1.95;0.85;;;13.60;98.10;;;;;;5091809;28;20027;-46
2024/01/01 09:09:10;;;;;;;1.55;0.80;;;13.70;98.40;;;;;;5093034;28;20028;-45
2024/01/01 09:11:36;;;;;;;1.65;0.80;;;13.80;98.00;;;;;;5093464;28;20027;-44
2024/01/01 09:14:02;;;;;;;1.45;0.60;;;13.90;97.90;;;;;;5092689;28;20118;-45
2024/01/01 09:16:29;;;;;;;1.38;0.73;;;14.00;97.80;;;;;;5093371;28;20432;-46
2024/01/01 09:19:01;;;;;;;1.58;0.82;;;14.00;97.70;;;;;;5093246;28;20509;-45
2024/01/01 09:21:27;;;;;;;2.72;1.02;;;14.00;97.60;;;;;;5092702;28;20379;-45
2024/01/01 09:24:03;;;;;;;1.25;0.63;;;14.10;97.60;;;;;;5093250;28;20453;-45
2024/01/01 09:26:29;;;;;;;0.75;0.50;;;14.20;97.50;;;;;;5092509;28;20047;-45
2024/01/01 09:28:56;;;;;;;1.45;0.65;;;14.20;97.40;;;;;;5092354;28;20420;-45
2024/01/01 09:31:23;;;;;;;1.73;0.82;;;14.30;97.40;;;;;;5093488;28;20468;-45
2024/01/01 09:33:50;;;;;;;1.98;0.70;;;14.30;97.30;;;;;;5093053;28;20024;-45
2024/01/01 09:36:15;;;;;;;2.13;1.00;;;14.40;97.20;;;;;;5092275;28;20019;-44
2024/01/01 09:38:44;;;;;;;1.00;0.68;;;14.50;97.20;;;;;;5092466;28;20102;-45
2024/01/01 09:41:12;;;;;;;2.22;0.73;;;14.60;97.10;;;;;;5094151;28;20058;-45
2024/01/01 09:43:38;;;;;;;0.90;0.60;;;14.60;97.00;;;;;;5093378;28;20052;-44
2024/01/01 09:46:04;;;;;;;1.42;0.70;;;14.70;96.90;;;;;;5093398;28;20040;-45
2024/01/01 09:48:30;;;;;;;1.13;0.68;;;14.80;96.90;;;;;;5091649;28;20035;-45
2024/01/01 09:50:55;;;;;;;1.13;0.60;;;14.80;97.10;;;;;;5092692;28;20042;-45
2024/01/01 09:53:21;;;;;;;1.40;0.80;;;14.90;96.70;;;;;;5092603;28;20035;-45
2024/01/01 09:55:54;;;;;;;1.73;0.80;;;14.90;96.60;;;;;;5092388;28;20022;-45
2024/01/01 09:58:20;;;;;;;0.93;0.65;;;15.00;96.60;;;;;;5092420;28;20107;-45
2024/01/01 10:00:46;;;;;;;1.35;0.68;;;15.00;96.50;;;;;;5091724;28;20028;-46
2024/01/01 10:03:13;;;;;;;0.98;0.60;;;15.10;96.40;;;;;;5092001;28;20190;-44
2024/01/01 10:05:40;;;;;;;1.52;0.40;;;15.20;96.40;;;;;;5092667;28;20453;-45
2024/01/01 10:08:10;;;;;;;0.80;0.50;;;15.20;96.30;;;;;;5092458;28;20024;-45
2024/01/01 10:10:40;;;;;;;1.15;0.60;;;15.20;96.30;;;;;;5092631;28;20470;-45
2024/01/01 10:13:09;;;;;;;0.98;0.50;;;15.20;96.30;;;;;;5091409;28;20035;-44
2024/01/01 10:15:37;;;;;;;1.25;0.60;;;15.30;96.20;;;;;;5092809;28;20034;-45
2024/01/01 10:18:11;;;;;;;0.93;0.60;;;15.30;96.20;;;;;;5090649;28;20024;-46
2024/01/01 10:20:40;;;;;;;1.53;0.80;;;15.30;96.10;;;;;;5097333;28;20020;-45
2024/01/01 10:23:23;;;;;;;1.80;0.60;;;15.40;96.10;;;;;;5096758;28;20470;-45
2024/01/01 10:26:00;;;;;;;1.45;0.60;;;15.40;96.00;;;;;;5096494;28;20024;-45
2024/01/01 10:28:29;;;;;;;2.40;0.43;;;15.50;95.90;;;;;;5096278;28;20036;-45
2024/01/01 10:30:55;;;;;;;1.15;0.50;;;15.60;95.90;;;;;;5096540;28;20020;-45
2024/01/01 10:33:22;;;;;;;2.42;0.77;;;15.60;96.10;;;;;;5095436;28;20047;-45
2024/01/01 10:35:49;;;;;;;0.73;0.50;;;15.60;95.70;;;;;;5095928;28;20103;-45
2024/01/01 10:38:17;;;;;;;1.25;0.50;;;15.70;95.70;;;;;;5096093;28;20492;-45
2024/01/01 10:40:44;;;;;;;1.20;0.77;;;15.70;95.60;;;;;;5096913;28;20032;-45
2024/01/01 10:43:10;;;;;;;1.45;0.50;;;15.80;95.60;;;;;;5096029;28;20474;-45
2024/01/01 10:45:36;;;;;;;1.70;0.60;;;15.80;95.50;;;;;;5095836;28;20474;-45
2024/01/01 10:48:05;;;;;;;0.70;0.50;;;15.80;95.40;;;;;;5094846;28;20036;-44
2024/01/01 10:50:32;;;;;;;1.60;0.57;;;15.90;95.40;;;;;;5096359;28;20539;-45
2024/01/01 10:53:23;;;;;;;1.33;0.50;;;15.90;95.30;;;;;;5096761;28;20107;-45
2024/01/01 10:55:56;;;;;;;1.80;0.60;;;15.90;95.30;;;;;;5096211;28;20462;-45
2024/01/01 10:58:47;;;;;;;1.17;0.55;;;16.00;95.20;;;;;;5095598;28;20032;-45
2024/01/01 11:01:19;;;;;;;1.90;0.75;;;16.00;95.10;;;;;;5095630;28;20039;-45
2024/01/01 11:03:48;;;;;;;1.75;0.80;;;16.00;95.10;;;;;;5096218;28;20039;-45
2024/01/01 11:06:31;;;;;;;1.00;0.50;;;16.10;95.00;;;;;;5096215;28;20028;-45
2024/01/01 11:08:58;;;;;;;1.63;0.70;;;16.10;94.90;;;;;;5095645;28;20493;-45
2024/01/01 11:11:30;;;;;;;1.83;0.60;;;16.10;94.90;;;;;;5096446;28;20027;-45
2024/01/01 11:13:56;;;;;;;1.52;0.55;;;16.10;94.90;;;;;;5096076;28;20362;-45
2024/01/01 11:16:23;;;;;;;2.00;0.73;;;16.10;94.80;;;;;;5096022;28;20016;-44
2024/01/01 11:18:49;;;;;;;1.10;0.60;;;16.10;94.80;;;;;;5095629;28;20028;-45
2024/01/01 11:21:32;;;;;;;2.10;0.85;;;16.20;94.80;;;;;;5095067;28;20082;-45
2024/01/01 11:24:01;;;;;;;1.77;0.68;;;16.20;95.00;;;;;;5095279;28;20106;-45
2024/01/01 11:26:31;;;;;;;1.65;0.50;;;16.20;94.60;;;;;;5095410;28;20035;-45
2024/01/01 11:29:16;;;;;;;1.00;0.60;;;16.20;94.60;;;;;;5095713;28;20024;-45
2024/01/01 11:31:42;;;;;;;1.73;0.55;;;16.20;94.50;;;;;;5095465;28;20369;-45
2024/01/01 11:34:16;;;;;;;3.10;0.70;;;16.20;94.50;;;;;;5095432;28;20122;-45
2024/01/01 11:36:41;;;;;;;1.52;0.70;;;16.30;94.50;;;;;;5095590;28;20525;-45
2024/01/01 11:39:07;;;;;;;3.20;1.15;;;16.20;94.40;;;;;;5094882;28;20111;-45
2024/01/01 11:41:33;;;;;;;4.13;0.80;;;16.20;94.40;;;;;;5095142;28;20402;-45
2024/01/01 11:44:09;;;;;;;1.13;0.60;;;16.20;94.40;;;;;;5095002;28;20020;-45
2024/01/01 11:46:35;;;;;;;2.10;0.80;;;16.20;94.30;;;;;;5095123;28;20020;-45
2024/01/01 11:49:01;;;;;;;1.67;0.82;;;16.20;94.30;;;;;;5093819;28;20031;-45
2024/01/01 11:51:31;;;;;;;2.03;0.85;;;16.20;94.30;;;;;;5095181;28;20028;-45
2024/01/01 11:54:04;;;;;;;2.28;0.70;;;16.20;94.30;;;;;;5094389;28;20020;-45
2024/01/01 11:56:30;;;;;;;2.28;0.75;;;16.20;94.30;;;;;;5095090;28;20062;-45
2024/01/01 11:58:57;;;;;;;2.13;0.80;;;16.20;94.30;;;;;;5095176;28;20027;-45
2024/01/01 12:01:22;;;;;;;4.32;1.02;;;16.30;94.30;;;;;;5093339;28;20428;-45
2024/01/01 12:03:48;;;;;;;1.85;0.80;;;16.20;94.30;;;;;;5095133;28;20024;-45
2024/01/01 12:06:17;;;;;;;2.08;0.70;;;16.20;94.30;;;;;;5094903;28;20035;-45
2024/01/01 12:08:43;;;;;;;2.85;1.10;;;16.20;94.20;;;;;;5094616;28;20035;-44
2024/01/01 12:11:10;;;;;;;1.23;0.63;;;16.30;94.30;;;;;;5094527;28;20028;-45
2024/01/01 12:13:35;;;;;;;1.00;0.55;;;16.30;94.30;;;;;;5095093;28;20065;-45
2024/01/01 12:16:17;;;;;;;2.05;0.80;;;16.30;94.20;;;;;;5094134;28;20020;-45
2024/01/01 12:18:42;;;;;;;1.10;0.60;;;16.30;94.20;;;;;;5094758;28;20028;-45
2024/01/01 12:21:09;;;;;;;2.13;0.90;;;16.30;94.10;;;;;;5094989;28;20069;-45
2024/01/01 12:23:34;;;;;;;1.10;0.52;;;16.30;94.10;;;;;;5093631;28;20446;-45
2024/01/01 12:26:04;;;;;;;1.85;0.80;;;16.30;94.10;;;;;;5094580;28;20533;-44
2024/01/01 12:28:29;;;;;;;1.75;0.75;;;16.30;94.10;;;;;;5092240;28;20493;-45
2024/01/01 12:30:59;;;;;;;2.78;0.80;;;16.30;94.10;;;;;;5093772;28;20099;-45
2024/01/01 12:33:24;;;;;;;2.60;0.80;;;16.30;94.10;;;;;;5093694;28;20031;-44
2024/01/01 12:35:50;;;;;;;3.67;1.00;;;16.30;94.10;;;;;;5094159;28;20028;-44
2024/01/01 12:38:16;;;;;;;2.97;0.82;;;16.40;94.10;;;;;;5093827;28;20397;-45
2024/01/01 12:40:41;;;;;;;1.95;0.85;;;16.40;94.00;;;;;;5093570;28;20035;-44